San Angelo's Hourly Summary for Monday, July 9, 2018
Hour Temp
(f)
RH
(%)
Solar Rad.
(MJ/m2)
Rainfall
(in)
Wind
(mph)
7/9/2018 12:00 AM 75 69 0 0 4.44
7/9/2018 1:00 AM 74 75 0 0 2.14
7/9/2018 2:00 AM 73 75 0 0 2.29
7/9/2018 3:00 AM 71 76 0 0 1.01
7/9/2018 4:00 AM 71 83 0 0 0.21
7/9/2018 5:00 AM 72 74 0 0 0.8
7/9/2018 6:00 AM 73 74 0 0 1.56
7/9/2018 7:00 AM 73 76 0 0 1.56
7/9/2018 8:00 AM 73 76 0.15 0 1.01
7/9/2018 9:00 AM 74 71 0.9 0 2.18
7/9/2018 10:00 AM 77 63 1.59 0 2.04
7/9/2018 11:00 AM 79 61 1.39 0 3.29
7/9/2018 12:00 PM 79 60 1.27 0 3.74
7/9/2018 1:00 PM 84 52 3.11 0 3.97
7/9/2018 2:00 PM 85 51 2.1 0 6.24
7/9/2018 3:00 PM 84 54 1.39 0 7.58
7/9/2018 4:00 PM 82 52 0.74 0.02 6.36
7/9/2018 5:00 PM 71 80 0.08 0.2 5.8
7/9/2018 6:00 PM 73 86 0.08 0.04 4.5
7/9/2018 7:00 PM 73 90 0.04 0.04 4.52
7/9/2018 8:00 PM 72 91 0.05 0.01 2.98
7/9/2018 9:00 PM 72 90 0.02 0 0.55
7/9/2018 10:00 PM 72 92 0 0 1.99
7/9/2018 11:00 PM 71 91 0 0 2.58
Data Summary 75 73 12.91 0.31 3.06